sensor_id;sensor_type;location;lat;lon;timestamp;pressure;altitude;pressure_sealevel;temperature;humidity
42105;BME280;68365;51.472;5.712;2023-03-04T00:01:54;102366.53;;;16.64;100.00
42105;BME280;68365;51.472;5.712;2023-03-04T00:04:19;102371.28;;;16.61;100.00
42105;BME280;68365;51.472;5.712;2023-03-04T00:06:45;102370.28;;;16.54;100.00
42105;BME280;68365;51.472;5.712;2023-03-04T00:09:11;102364.84;;;16.47;100.00
42105;BME280;68365;51.472;5.712;2023-03-04T00:11:37;102369.59;;;16.43;100.00
42105;BME280;68365;51.472;5.712;2023-03-04T00:14:03;102367.59;;;16.37;100.00
42105;BME280;68365;51.472;5.712;2023-03-04T00:16:28;102368.06;;;16.33;100.00
42105;BME280;68365;51.472;5.712;2023-03-04T00:18:55;102372.81;;;16.29;100.00
42105;BME280;68365;51.472;5.712;2023-03-04T00:21:22;102369.66;;;16.25;100.00
42105;BME280;68365;51.472;5.712;2023-03-04T00:23:49;102361.28;;;16.22;100.00
42105;BME280;68365;51.472;5.712;2023-03-04T00:26:15;102359.97;;;16.18;100.00
42105;BME280;68365;51.472;5.712;2023-03-04T00:28:42;102352.44;;;16.15;100.00
42105;BME280;68365;51.472;5.712;2023-03-04T00:31:09;102356.34;;;16.11;100.00
42105;BME280;68365;51.472;5.712;2023-03-04T00:33:35;102349.63;;;16.08;100.00
42105;BME280;68365;51.472;5.712;2023-03-04T00:36:02;102353.34;;;16.05;100.00
42105;BME280;68365;51.472;5.712;2023-03-04T00:38:28;102354.63;;;16.01;100.00
42105;BME280;68365;51.472;5.712;2023-03-04T00:40:54;102349.72;;;15.98;100.00
42105;BME280;68365;51.472;5.712;2023-03-04T00:43:21;102356.91;;;15.96;100.00
42105;BME280;68365;51.472;5.712;2023-03-04T00:45:47;102352.81;;;15.94;100.00
42105;BME280;68365;51.472;5.712;2023-03-04T00:48:13;102359.16;;;15.91;100.00
42105;BME280;68365;51.472;5.712;2023-03-04T00:50:41;102360.16;;;15.90;100.00
42105;BME280;68365;51.472;5.712;2023-03-04T00:53:07;102358.66;;;15.87;100.00
42105;BME280;68365;51.472;5.712;2023-03-04T00:55:32;102359.78;;;15.85;100.00
42105;BME280;68365;51.472;5.712;2023-03-04T00:57:58;102354.72;;;15.83;100.00
42105;BME280;68365;51.472;5.712;2023-03-04T01:00:24;102358.44;;;15.81;100.00
42105;BME280;68365;51.472;5.712;2023-03-04T01:02:50;102350.09;;;15.77;100.00
42105;BME280;68365;51.472;5.712;2023-03-04T01:05:16;102353.81;;;15.75;100.00
42105;BME280;68365;51.472;5.712;2023-03-04T01:07:42;102353.16;;;15.73;100.00
42105;BME280;68365;51.472;5.712;2023-03-04T01:10:09;102359.34;;;15.72;100.00
42105;BME280;68365;51.472;5.712;2023-03-04T01:12:37;102361.28;;;15.69;100.00
42105;BME280;68365;51.472;5.712;2023-03-04T01:15:05;102358.00;;;15.67;100.00
42105;BME280;68365;51.472;5.712;2023-03-04T01:17:31;102353.06;;;15.64;100.00
42105;BME280;68365;51.472;5.712;2023-03-04T01:19:57;102354.19;;;15.62;100.00
42105;BME280;68365;51.472;5.712;2023-03-04T01:22:23;102359.56;;;15.60;100.00
42105;BME280;68365;51.472;5.712;2023-03-04T01:24:48;102366.75;;;15.58;100.00
42105;BME280;68365;51.472;5.712;2023-03-04T01:27:14;102355.63;;;15.56;100.00
42105;BME280;68365;51.472;5.712;2023-03-04T01:29:40;102363.78;;;15.53;100.00
42105;BME280;68365;51.472;5.712;2023-03-04T01:32:06;102361.47;;;15.50;100.00
42105;BME280;68365;51.472;5.712;2023-03-04T01:34:32;102352.13;;;15.47;100.00
42105;BME280;68365;51.472;5.712;2023-03-04T01:36:58;102353.94;;;15.47;100.00
42105;BME280;68365;51.472;5.712;2023-03-04T01:39:24;102348.03;;;15.45;100.00
42105;BME280;68365;51.472;5.712;2023-03-04T01:41:50;102344.59;;;15.44;100.00
42105;BME280;68365;51.472;5.712;2023-03-04T01:44:15;102346.69;;;15.41;100.00
42105;BME280;68365;51.472;5.712;2023-03-04T01:46:47;102337.34;;;15.38;100.00
42105;BME280;68365;51.472;5.712;2023-03-04T01:49:14;102341.91;;;15.36;100.00
42105;BME280;68365;51.472;5.712;2023-03-04T01:51:49;102340.25;;;15.35;100.00
42105;BME280;68365;51.472;5.712;2023-03-04T01:54:16;102335.16;;;15.34;100.00
42105;BME280;68365;51.472;5.712;2023-03-04T01:56:45;102335.34;;;15.32;100.00
42105;BME280;68365;51.472;5.712;2023-03-04T01:59:24;102333.81;;;15.29;100.00
42105;BME280;68365;51.472;5.712;2023-03-04T02:01:53;102326.28;;;15.26;100.00
42105;BME280;68365;51.472;5.712;2023-03-04T02:04:31;102324.50;;;15.27;100.00
42105;BME280;68365;51.472;5.712;2023-03-04T02:07:01;102328.22;;;15.24;100.00
42105;BME280;68365;51.472;5.712;2023-03-04T02:09:29;102323.28;;;15.21;100.00
42105;BME280;68365;51.472;5.712;2023-03-04T02:11:55;102323.28;;;15.21;100.00
42105;BME280;68365;51.472;5.712;2023-03-04T02:14:21;102320.00;;;15.19;100.00
42105;BME280;68365;51.472;5.712;2023-03-04T02:16:49;102323.59;;;15.18;100.00
42105;BME280;68365;51.472;5.712;2023-03-04T02:19:46;102323.91;;;15.15;100.00
42105;BME280;68365;51.472;5.712;2023-03-04T02:22:14;102316.38;;;15.12;100.00
42105;BME280;68365;51.472;5.712;2023-03-04T02:25:06;102307.69;;;15.12;100.00
42105;BME280;68365;51.472;5.712;2023-03-04T02:27:35;102313.06;;;15.10;100.00
42105;BME280;68365;51.472;5.712;2023-03-04T02:30:01;102311.41;;;15.09;100.00
42105;BME280;68365;51.472;5.712;2023-03-04T02:32:27;102300.28;;;15.07;100.00
42105;BME280;68365;51.472;5.712;2023-03-04T02:34:53;102310.06;;;15.05;100.00
42105;BME280;68365;51.472;5.712;2023-03-04T02:37:19;102306.66;;;15.04;100.00
42105;BME280;68365;51.472;5.712;2023-03-04T02:39:48;102303.34;;;15.02;100.00
42105;BME280;68365;51.472;5.712;2023-03-04T02:42:15;102303.34;;;15.02;100.00
42105;BME280;68365;51.472;5.712;2023-03-04T02:44:44;102296.19;;;15.04;100.00
42105;BME280;68365;51.472;5.712;2023-03-04T02:47:15;102305.81;;;15.04;100.00
42105;BME280;68365;51.472;5.712;2023-03-04T02:49:43;102297.78;;;14.97;100.00
42105;BME280;68365;51.472;5.712;2023-03-04T02:52:19;102295.66;;;15.01;100.00
42105;BME280;68365;51.472;5.712;2023-03-04T02:54:45;102293.34;;;14.98;100.00
42105;BME280;68365;51.472;5.712;2023-03-04T02:57:13;102297.59;;;14.99;100.00
42105;BME280;68365;51.472;5.712;2023-03-04T02:59:41;102295.16;;;14.97;100.00
42105;BME280;68365;51.472;5.712;2023-03-04T03:02:07;102281.91;;;14.99;100.00
42105;BME280;68365;51.472;5.712;2023-03-04T03:04:36;102282.91;;;14.98;100.00
42105;BME280;68365;51.472;5.712;2023-03-04T03:07:02;102284.31;;;14.92;100.00
42105;BME280;68365;51.472;5.712;2023-03-04T03:09:28;102286.78;;;14.94;100.00
42105;BME280;68365;51.472;5.712;2023-03-04T03:11:54;102285.13;;;14.93;100.00
42105;BME280;68365;51.472;5.712;2023-03-04T03:14:20;102286.91;;;14.92;100.00
42105;BME280;68365;51.472;5.712;2023-03-04T03:16:45;102287.22;;;14.89;100.00
42105;BME280;68365;51.472;5.712;2023-03-04T03:19:11;102281.03;;;14.90;100.00
42105;BME280;68365;51.472;5.712;2023-03-04T03:21:37;102286.38;;;14.88;100.00
42105;BME280;68365;51.472;5.712;2023-03-04T03:24:03;102279.00;;;14.84;100.00
42105;BME280;68365;51.472;5.712;2023-03-04T03:26:29;102283.41;;;14.83;100.00
42105;BME280;68365;51.472;5.712;2023-03-04T03:28:54;102275.72;;;14.82;100.00
42105;BME280;68365;51.472;5.712;2023-03-04T03:31:20;102275.84;;;14.80;100.00
42105;BME280;68365;51.472;5.712;2023-03-04T03:33:46;102271.47;;;14.81;100.00
42105;BME280;68365;51.472;5.712;2023-03-04T03:36:12;102270.81;;;14.79;100.00
42105;BME280;68365;51.472;5.712;2023-03-04T03:38:38;102277.78;;;14.78;100.00
42105;BME280;68365;51.472;5.712;2023-03-04T03:41:04;102276.03;;;14.79;100.00
42105;BME280;68365;51.472;5.712;2023-03-04T03:43:30;102272.56;;;14.78;100.00
42105;BME280;68365;51.472;5.712;2023-03-04T03:45:56;102269.47;;;14.75;100.00
42105;BME280;68365;51.472;5.712;2023-03-04T03:48:22;102268.47;;;14.76;100.00
42105;BME280;68365;51.472;5.712;2023-03-04T03:50:47;102264.38;;;14.73;100.00
42105;BME280;68365;51.472;5.712;2023-03-04T03:53:13;102266.97;;;14.73;100.00
42105;BME280;68365;51.472;5.712;2023-03-04T03:55:39;102268.78;;;14.73;100.00
42105;BME280;68365;51.472;5.712;2023-03-04T03:58:05;102268.78;;;14.73;100.00
42105;BME280;68365;51.472;5.712;2023-03-04T04:00:31;102263.84;;;14.69;100.00
42105;BME280;68365;51.472;5.712;2023-03-04T04:02:57;102264.66;;;14.70;100.00
42105;BME280;68365;51.472;5.712;2023-03-04T04:05:24;102274.59;;;14.66;100.00
42105;BME280;68365;51.472;5.712;2023-03-04T04:07:50;102260.03;;;14.64;100.00
42105;BME280;68365;51.472;5.712;2023-03-04T04:10:16;102269.38;;;14.66;100.00
42105;BME280;68365;51.472;5.712;2023-03-04T04:12:42;102271.81;;;14.68;100.00
42105;BME280;68365;51.472;5.712;2023-03-04T04:15:11;102266.91;;;14.65;100.00
42105;BME280;68365;51.472;5.712;2023-03-04T04:17:37;102262.63;;;14.64;100.00
42105;BME280;68365;51.472;5.712;2023-03-04T04:20:05;102263.75;;;14.61;100.00
42105;BME280;68365;51.472;5.712;2023-03-04T04:22:31;102259.50;;;14.60;100.00
42105;BME280;68365;51.472;5.712;2023-03-04T04:24:56;102277.63;;;14.62;100.00
42105;BME280;68365;51.472;5.712;2023-03-04T04:27:22;102265.84;;;14.58;100.00
42105;BME280;68365;51.472;5.712;2023-03-04T04:29:48;102269.44;;;14.57;100.00
42105;BME280;68365;51.472;5.712;2023-03-04T04:32:14;102273.84;;;14.56;100.00
42105;BME280;68365;51.472;5.712;2023-03-04T04:34:39;102273.69;;;14.58;100.00
42105;BME280;68365;51.472;5.712;2023-03-04T04:37:05;102274.53;;;14.58;100.00
42105;BME280;68365;51.472;5.712;2023-03-04T04:39:31;102267.06;;;14.54;100.00
42105;BME280;68365;51.472;5.712;2023-03-04T04:41:57;102272.16;;;14.55;100.00
42105;BME280;68365;51.472;5.712;2023-03-04T04:44:23;102278.22;;;14.56;100.00
42105;BME280;68365;51.472;5.712;2023-03-04T04:46:48;102276.47;;;14.56;100.00
42105;BME280;68365;51.472;5.712;2023-03-04T04:49:14;102277.53;;;14.54;100.00
42105;BME280;68365;51.472;5.712;2023-03-04T04:51:40;102280.31;;;14.52;100.00
42105;BME280;68365;51.472;5.712;2023-03-04T04:54:06;102270.94;;;14.49;100.00
42105;BME280;68365;51.472;5.712;2023-03-04T04:56:32;102274.22;;;14.52;100.00
42105;BME280;68365;51.472;5.712;2023-03-04T04:59:02;102273.72;;;14.48;100.00
42105;BME280;68365;51.472;5.712;2023-03-04T05:01:28;102280.59;;;14.49;100.00
42105;BME280;68365;51.472;5.712;2023-03-04T05:03:54;102277.16;;;14.48;100.00
42105;BME280;68365;51.472;5.712;2023-03-04T05:06:22;102280.72;;;14.47;100.00
42105;BME280;68365;51.472;5.712;2023-03-04T05:08:49;102277.97;;;14.49;100.00
42105;BME280;68365;51.472;5.712;2023-03-04T05:11:16;102281.56;;;14.48;100.00
42105;BME280;68365;51.472;5.712;2023-03-04T05:13:44;102276.47;;;14.46;100.00
42105;BME280;68365;51.472;5.712;2023-03-04T05:16:09;102277.28;;;14.47;100.00
42105;BME280;68365;51.472;5.712;2023-03-04T05:18:35;102276.63;;;14.45;100.00
42105;BME280;68365;51.472;5.712;2023-03-04T05:21:02;102275.00;;;14.44;100.00
42105;BME280;68365;51.472;5.712;2023-03-04T05:23:31;102283.66;;;14.44;100.00
42105;BME280;68365;51.472;5.712;2023-03-04T05:25:58;102280.22;;;14.44;100.00
42105;BME280;68365;51.472;5.712;2023-03-04T05:28:24;102275.81;;;14.44;100.00
42105;BME280;68365;51.472;5.712;2023-03-04T05:30:50;102275.94;;;14.43;100.00
42105;BME280;68365;51.472;5.712;2023-03-04T05:33:17;102282.00;;;14.43;100.00
42105;BME280;68365;51.472;5.712;2023-03-04T05:35:45;102278.69;;;14.41;100.00
42105;BME280;68365;51.472;5.712;2023-03-04T05:38:15;102270.72;;;14.43;100.00
42105;BME280;68365;51.472;5.712;2023-03-04T05:40:42;102276.94;;;14.42;100.00
42105;BME280;68365;51.472;5.712;2023-03-04T05:43:09;102275.13;;;14.42;100.00
42105;BME280;68365;51.472;5.712;2023-03-04T05:45:35;102278.69;;;14.41;100.00
42105;BME280;68365;51.472;5.712;2023-03-04T05:48:01;102281.47;;;14.40;100.00
42105;BME280;68365;51.472;5.712;2023-03-04T05:50:28;102279.81;;;14.39;100.00
42105;BME280;68365;51.472;5.712;2023-03-04T05:52:53;102279.97;;;14.37;100.00
42105;BME280;68365;51.472;5.712;2023-03-04T05:55:20;102280.81;;;14.38;100.00
42105;BME280;68365;51.472;5.712;2023-03-04T05:57:46;102284.22;;;14.38;100.00
42105;BME280;68365;51.472;5.712;2023-03-04T06:00:13;102287.78;;;14.37;100.00
42105;BME280;68365;51.472;5.712;2023-03-04T06:02:40;102285.19;;;14.37;100.00
42105;BME280;68365;51.472;5.712;2023-03-04T06:05:07;102290.72;;;14.34;100.00
42105;BME280;68365;51.472;5.712;2023-03-04T06:07:34;102281.75;;;14.37;100.00
42105;BME280;68365;51.472;5.712;2023-03-04T06:09:59;102285.50;;;14.34;100.00
42105;BME280;68365;51.472;5.712;2023-03-04T06:12:25;102288.91;;;14.35;100.00
42105;BME280;68365;51.472;5.712;2023-03-04T06:14:53;102283.81;;;14.33;100.00
42105;BME280;68365;51.472;5.712;2023-03-04T06:17:19;102287.28;;;14.34;100.00
42105;BME280;68365;51.472;5.712;2023-03-04T06:19:45;102289.22;;;14.32;100.00
42105;BME280;68365;51.472;5.712;2023-03-04T06:22:11;102298.69;;;14.33;100.00
42105;BME280;68365;51.472;5.712;2023-03-04T06:24:37;102297.88;;;14.32;100.00
42105;BME280;68365;51.472;5.712;2023-03-04T06:27:03;102305.72;;;14.32;100.00
42105;BME280;68365;51.472;5.712;2023-03-04T06:29:29;102309.28;;;14.31;100.00
42105;BME280;68365;51.472;5.712;2023-03-04T06:31:55;102308.31;;;14.32;100.00
42105;BME280;68365;51.472;5.712;2023-03-04T06:34:21;102308.47;;;14.31;100.00
42105;BME280;68365;51.472;5.712;2023-03-04T06:36:47;102309.44;;;14.29;100.00
42105;BME280;68365;51.472;5.712;2023-03-04T06:39:13;102310.25;;;14.30;100.00
42105;BME280;68365;51.472;5.712;2023-03-04T06:41:39;102311.06;;;14.31;100.00
42105;BME280;68365;51.472;5.712;2023-03-04T06:44:05;102312.06;;;14.29;100.00
42105;BME280;68365;51.472;5.712;2023-03-04T06:46:35;102311.22;;;14.29;100.00
42105;BME280;68365;51.472;5.712;2023-03-04T06:49:00;102316.44;;;14.29;100.00
42105;BME280;68365;51.472;5.712;2023-03-04T06:51:27;102314.81;;;14.28;100.00
42105;BME280;68365;51.472;5.712;2023-03-04T06:53:53;102319.88;;;14.29;100.00
42105;BME280;68365;51.472;5.712;2023-03-04T06:56:19;102318.22;;;14.28;100.00
42105;BME280;68365;51.472;5.712;2023-03-04T06:58:45;102317.28;;;14.29;100.00
42105;BME280;68365;51.472;5.712;2023-03-04T07:01:23;102319.03;;;14.29;100.00
42105;BME280;68365;51.472;5.712;2023-03-04T07:03:50;102326.19;;;14.27;100.00
42105;BME280;68365;51.472;5.712;2023-03-04T07:06:20;102327.88;;;14.28;100.00
42105;BME280;68365;51.472;5.712;2023-03-04T07:08:47;102322.63;;;14.28;100.00
42105;BME280;68365;51.472;5.712;2023-03-04T07:11:14;102323.44;;;14.28;100.00
42105;BME280;68365;51.472;5.712;2023-03-04T07:13:40;102321.66;;;14.29;100.00
42105;BME280;68365;51.472;5.712;2023-03-04T07:16:10;102325.13;;;14.29;100.00
42105;BME280;68365;51.472;5.712;2023-03-04T07:18:36;102324.44;;;14.27;100.00
42105;BME280;68365;51.472;5.712;2023-03-04T07:21:04;102321.53;;;14.31;100.00
42105;BME280;68365;51.472;5.712;2023-03-04T07:23:31;102324.28;;;14.29;100.00
42105;BME280;68365;51.472;5.712;2023-03-04T07:25:57;102332.94;;;14.29;100.00
42105;BME280;68365;51.472;5.712;2023-03-04T07:28:23;102335.56;;;14.29;100.00
42105;BME280;68365;51.472;5.712;2023-03-04T07:30:48;102338.00;;;14.31;100.00
42105;BME280;68365;51.472;5.712;2023-03-04T07:33:14;102339.66;;;14.32;100.00
42105;BME280;68365;51.472;5.712;2023-03-04T07:35:40;102337.19;;;14.31;100.00
42105;BME280;68365;51.472;5.712;2023-03-04T07:38:06;102336.25;;;14.32;100.00
42105;BME280;68365;51.472;5.712;2023-03-04T07:40:32;102338.69;;;14.33;100.00
42105;BME280;68365;51.472;5.712;2023-03-04T07:42:58;102341.28;;;14.33;100.00
42105;BME280;68365;51.472;5.712;2023-03-04T07:45:24;102343.09;;;14.33;100.00
42105;BME280;68365;51.472;5.712;2023-03-04T07:47:50;102344.91;;;14.32;100.00
42105;BME280;68365;51.472;5.712;2023-03-04T07:50:17;102347.38;;;14.34;100.00
42105;BME280;68365;51.472;5.712;2023-03-04T07:52:46;102350.78;;;14.34;100.00
42105;BME280;68365;51.472;5.712;2023-03-04T07:55:14;102348.03;;;14.36;100.00
42105;BME280;68365;51.472;5.712;2023-03-04T07:57:42;102349.53;;;14.38;100.00
42105;BME280;68365;51.472;5.712;2023-03-04T08:00:09;102349.53;;;14.38;100.00
42105;BME280;68365;51.472;5.712;2023-03-04T08:02:36;102349.53;;;14.38;100.00
42105;BME280;68365;51.472;5.712;2023-03-04T08:05:02;102357.91;;;14.42;100.00
42105;BME280;68365;51.472;5.712;2023-03-04T08:07:28;102351.72;;;14.43;100.00
42105;BME280;68365;51.472;5.712;2023-03-04T08:09:54;102356.66;;;14.46;100.00
42105;BME280;68365;51.472;5.712;2023-03-04T08:12:20;102352.94;;;14.48;100.00
42105;BME280;68365;51.472;5.712;2023-03-04T08:14:46;102357.03;;;14.51;100.00
42105;BME280;68365;51.472;5.712;2023-03-04T08:17:11;102361.31;;;14.52;100.00
42105;BME280;68365;51.472;5.712;2023-03-04T08:19:39;102361.13;;;14.54;100.00
42105;BME280;68365;51.472;5.712;2023-03-04T08:22:05;102366.13;;;14.57;100.00
42105;BME280;68365;51.472;5.712;2023-03-04T08:24:31;102359.91;;;14.58;100.00
42105;BME280;68365;51.472;5.712;2023-03-04T08:26:57;102363.88;;;14.62;100.00
42105;BME280;68365;51.472;5.712;2023-03-04T08:29:24;102361.66;;;14.67;100.00
42105;BME280;68365;51.472;5.712;2023-03-04T08:31:52;102365.63;;;14.71;100.00
42105;BME280;68365;51.472;5.712;2023-03-04T08:34:21;102367.00;;;14.75;100.00
42105;BME280;68365;51.472;5.712;2023-03-04T08:36:47;102369.97;;;14.80;100.00
42105;BME280;68365;51.472;5.712;2023-03-04T08:39:16;102368.28;;;14.89;100.00
42105;BME280;68365;51.472;5.712;2023-03-04T08:41:43;102367.84;;;14.94;100.00
42105;BME280;68365;51.472;5.712;2023-03-04T08:44:09;102365.44;;;15.00;100.00
42105;BME280;68365;51.472;5.712;2023-03-04T08:46:41;102360.69;;;15.14;100.00
42105;BME280;68365;51.472;5.712;2023-03-04T08:49:12;102372.41;;;15.27;100.00
42105;BME280;68365;51.472;5.712;2023-03-04T08:51:39;102369.84;;;15.36;100.00
42105;BME280;68365;51.472;5.712;2023-03-04T08:54:05;102365.66;;;15.43;100.00
42105;BME280;68365;51.472;5.712;2023-03-04T08:56:31;102372.91;;;15.49;100.00
42105;BME280;68365;51.472;5.712;2023-03-04T08:58:58;102370.97;;;15.51;100.00
42105;BME280;68365;51.472;5.712;2023-03-04T10:06:03;102338.78;;;17.62;62.27
42105;BME280;68365;51.472;5.712;2023-03-04T10:14:02;102332.41;;;17.40;62.01
42105;BME280;68365;51.472;5.712;2023-03-04T10:16:44;102327.81;;;17.42;61.60
42105;BME280;68365;51.472;5.712;2023-03-04T10:22:35;102322.56;;;17.42;60.39
42105;BME280;68365;51.472;5.712;2023-03-04T10:25:29;102321.25;;;17.38;61.48
42105;BME280;68365;51.472;5.712;2023-03-04T10:27:57;102321.56;;;17.43;59.89
42105;BME280;68365;51.472;5.712;2023-03-04T10:33:38;102330.38;;;17.91;58.90
42105;BME280;68365;51.472;5.712;2023-03-04T10:39:10;102333.81;;;17.92;59.63
42105;BME280;68365;51.472;5.712;2023-03-04T10:41:41;102325.03;;;18.16;61.43
42105;BME280;68365;51.472;5.712;2023-03-04T10:46:38;102333.44;;;18.50;60.87
42105;BME280;68365;51.472;5.712;2023-03-04T10:49:04;102321.94;;;18.43;64.14
42105;BME280;68365;51.472;5.712;2023-03-04T10:51:30;102320.16;;;18.44;63.69
42105;BME280;68365;51.472;5.712;2023-03-04T10:54:21;102312.25;;;18.44;67.26
42105;BME280;68365;51.472;5.712;2023-03-04T10:57:12;102317.41;;;18.29;69.21
42105;BME280;68365;51.472;5.712;2023-03-04T13:09:01;102173.78;;;16.11;100.00
42105;BME280;68365;51.472;5.712;2023-03-04T13:14:22;102170.84;;;16.14;100.00
42105;BME280;68365;51.472;5.712;2023-03-04T13:17:52;102166.28;;;16.16;100.00
42105;BME280;68365;51.472;5.712;2023-03-04T13:19:55;102163.16;;;16.13;100.00
42105;BME280;68365;51.472;5.712;2023-03-04T13:28:31;102154.25;;;15.89;100.00
42105;BME280;68365;51.472;5.712;2023-03-04T13:41:29;102147.34;;;15.80;100.00
42105;BME280;68365;51.472;5.712;2023-03-04T13:44:00;102148.50;;;15.77;100.00
42105;BME280;68365;51.472;5.712;2023-03-04T13:46:27;102147.03;;;15.83;100.00
42105;BME280;68365;51.472;5.712;2023-03-04T13:51:32;102148.00;;;15.82;100.00
42105;BME280;68365;51.472;5.712;2023-03-04T14:01:58;102145.44;;;15.98;100.00
42105;BME280;68365;51.472;5.712;2023-03-04T14:04:39;102140.56;;;16.20;100.00
42105;BME280;68365;51.472;5.712;2023-03-04T14:07:25;102138.78;;;16.37;100.00
42105;BME280;68365;51.472;5.712;2023-03-04T14:10:22;102134.53;;;16.44;100.00
42105;BME280;68365;51.472;5.712;2023-03-04T14:12:55;102138.13;;;16.59;100.00
42105;BME280;68365;51.472;5.712;2023-03-04T14:15:24;102136.81;;;16.72;100.00
42105;BME280;68365;51.472;5.712;2023-03-04T14:18:02;102124.19;;;16.75;100.00
42105;BME280;68365;51.472;5.712;2023-03-04T14:20:35;102126.81;;;16.83;100.00
42105;BME280;68365;51.472;5.712;2023-03-04T14:23:28;102123.84;;;17.03;100.00
42105;BME280;68365;51.472;5.712;2023-03-04T14:26:08;102123.38;;;17.39;100.00
42105;BME280;68365;51.472;5.712;2023-03-04T14:28:47;102118.88;;;17.64;100.00
42105;BME280;68365;51.472;5.712;2023-03-04T14:31:20;102118.31;;;17.77;100.00
42105;BME280;68365;51.472;5.712;2023-03-04T14:33:50;102114.19;;;17.82;100.00
42105;BME280;68365;51.472;5.712;2023-03-04T14:36:21;102118.38;;;17.60;100.00
42105;BME280;68365;51.472;5.712;2023-03-04T14:38:57;102113.22;;;17.44;100.00
42105;BME280;68365;51.472;5.712;2023-03-04T14:44:40;102112.91;;;17.30;100.00
42105;BME280;68365;51.472;5.712;2023-03-04T14:49:49;102109.19;;;17.25;100.00
42105;BME280;68365;51.472;5.712;2023-03-04T14:57:41;102098.19;;;17.29;100.00
42105;BME280;68365;51.472;5.712;2023-03-04T15:00:27;102092.44;;;17.26;100.00
42105;BME280;68365;51.472;5.712;2023-03-04T15:03:24;102096.25;;;17.23;100.00
42105;BME280;68365;51.472;5.712;2023-03-04T15:05:51;102099.00;;;17.30;100.00
42105;BME280;68365;51.472;5.712;2023-03-04T15:08:38;102094.75;;;17.29;100.00
42105;BME280;68365;51.472;5.712;2023-03-04T15:11:06;102088.00;;;17.26;100.00
42105;BME280;68365;51.472;5.712;2023-03-04T15:16:13;102086.53;;;17.24;100.00
42105;BME280;68365;51.472;5.712;2023-03-04T15:19:03;102077.38;;;17.20;100.00
42105;BME280;68365;51.472;5.712;2023-03-04T15:21:38;102077.72;;;17.17;100.00
42105;BME280;68365;51.472;5.712;2023-03-04T15:24:08;102081.47;;;17.22;100.00
42105;BME280;68365;51.472;5.712;2023-03-04T15:26:39;102069.63;;;17.26;100.00
42105;BME280;68365;51.472;5.712;2023-03-04T15:29:18;102065.19;;;17.35;100.00
42105;BME280;68365;51.472;5.712;2023-03-04T15:31:45;102068.28;;;17.39;100.00
42105;BME280;68365;51.472;5.712;2023-03-04T15:34:15;102071.63;;;17.24;100.00
42105;BME280;68365;51.472;5.712;2023-03-04T15:36:46;102075.13;;;17.17;100.00
42105;BME280;68365;51.472;5.712;2023-03-04T15:39:15;102069.69;;;17.10;100.00
42105;BME280;68365;51.472;5.712;2023-03-04T15:41:42;102066.66;;;16.98;100.00
42105;BME280;68365;51.472;5.712;2023-03-04T15:44:09;102071.41;;;16.95;100.00
42105;BME280;68365;51.472;5.712;2023-03-04T15:46:36;102075.19;;;16.92;100.00
42105;BME280;68365;51.472;5.712;2023-03-04T15:49:02;102072.41;;;16.85;100.00
42105;BME280;68365;51.472;5.712;2023-03-04T15:51:28;102072.38;;;16.77;100.00
42105;BME280;68365;51.472;5.712;2023-03-04T15:53:58;102075.50;;;16.73;100.00
42105;BME280;68365;51.472;5.712;2023-03-04T15:56:26;102080.47;;;16.84;100.00
42105;BME280;68365;51.472;5.712;2023-03-04T15:58:55;102078.03;;;17.22;100.00
42105;BME280;68365;51.472;5.712;2023-03-04T16:01:23;102081.47;;;17.62;100.00
42105;BME280;68365;51.472;5.712;2023-03-04T16:03:50;102082.19;;;18.25;100.00
42105;BME280;68365;51.472;5.712;2023-03-04T16:06:18;102076.72;;;18.87;100.00
42105;BME280;68365;51.472;5.712;2023-03-04T16:08:46;102077.63;;;19.46;100.00
42105;BME280;68365;51.472;5.712;2023-03-04T16:11:18;102087.88;;;19.92;100.00
42105;BME280;68365;51.472;5.712;2023-03-04T16:13:45;102083.84;;;20.39;100.00
42105;BME280;68365;51.472;5.712;2023-03-04T16:16:12;102072.25;;;20.97;100.00
42105;BME280;68365;51.472;5.712;2023-03-04T16:18:38;102087.16;;;21.66;98.61
42105;BME280;68365;51.472;5.712;2023-03-04T16:21:05;102081.03;;;21.65;97.99
42105;BME280;68365;51.472;5.712;2023-03-04T16:23:38;102080.47;;;21.90;96.52
42105;BME280;68365;51.472;5.712;2023-03-04T16:26:23;102076.25;;;22.09;93.98
42105;BME280;68365;51.472;5.712;2023-03-04T16:28:50;102075.03;;;22.32;92.01
42105;BME280;68365;51.472;5.712;2023-03-04T16:31:18;102077.88;;;22.37;91.21
42105;BME280;68365;51.472;5.712;2023-03-04T16:33:44;102080.31;;;22.38;91.21
42105;BME280;68365;51.472;5.712;2023-03-04T16:38:42;102085.97;;;22.68;88.44
42105;BME280;68365;51.472;5.712;2023-03-04T16:41:13;102078.44;;;22.65;87.99
42105;BME280;68365;51.472;5.712;2023-03-04T16:43:42;102079.47;;;22.58;88.59
42105;BME280;68365;51.472;5.712;2023-03-04T16:46:11;102077.81;;;22.77;85.00
42105;BME280;68365;51.472;5.712;2023-03-04T16:48:38;102079.38;;;22.98;83.08
42105;BME280;68365;51.472;5.712;2023-03-04T16:51:15;102081.44;;;22.96;83.74
42105;BME280;68365;51.472;5.712;2023-03-04T16:53:48;102089.41;;;22.76;85.62
42105;BME280;68365;51.472;5.712;2023-03-04T16:56:19;102085.16;;;22.68;86.92
42105;BME280;68365;51.472;5.712;2023-03-04T16:58:45;102085.34;;;22.80;86.03
42105;BME280;68365;51.472;5.712;2023-03-04T17:01:29;102083.09;;;22.70;86.42
42105;BME280;68365;51.472;5.712;2023-03-04T17:03:56;102081.91;;;22.66;86.45
42105;BME280;68365;51.472;5.712;2023-03-04T17:06:23;102094.53;;;22.70;86.52